Time;durP1;ratioP1;P1;durP2;ratioP2;P2;SDS_P1;SDS_P2;PMS_P1;PMS_P2;Temp;Humidity;BMP_temperature;BMP_pressure;BME280_temperature;BME280_humidity;BME280_pressure;Samples;Min_cycle;Max_cycle;Signal;HPM_P1;HPM_P2
2021/10/07 00:02:04;;;;;;;9.50;4.40;;;12.50;99.90;;;;;;5017182;28;20460;-77
2021/10/07 00:04:31;;;;;;;6.50;2.40;;;12.50;99.90;;;;;;5014495;28;20497;-78
2021/10/07 00:06:58;;;;;;;4.00;2.00;;;12.60;99.90;;;;;;5016239;28;20537;-78
2021/10/07 00:09:25;;;;;;;6.30;2.70;;;12.70;99.90;;;;;;5018169;28;20421;-77
2021/10/07 00:11:53;;;;;;;8.77;3.40;;;12.70;99.90;;;;;;5046815;28;20510;-79
2021/10/07 00:14:21;;;;;;;7.97;3.23;;;12.60;99.90;;;;;;5037531;28;20462;-79
2021/10/07 00:16:48;;;;;;;6.63;2.40;;;12.60;99.90;;;;;;5035187;28;20424;-79
2021/10/07 00:19:15;;;;;;;5.87;2.67;;;12.70;99.90;;;;;;5037592;28;20455;-79
2021/10/07 00:21:42;;;;;;;5.73;2.20;;;12.70;99.90;;;;;;5018627;28;20440;-79
2021/10/07 00:24:09;;;;;;;10.20;2.80;;;12.60;99.90;;;;;;5015917;28;20467;-79
2021/10/07 00:26:38;;;;;;;12.93;4.97;;;12.60;99.90;;;;;;5015410;28;20896;-78
2021/10/07 00:29:19;;;;;;;15.60;5.77;;;12.60;99.90;;;;;;5015063;28;20457;-79
2021/10/07 00:31:50;;;;;;;5.53;2.67;;;12.60;99.90;;;;;;4995986;28;20470;-78
2021/10/07 00:34:23;;;;;;;4.33;1.80;;;12.70;99.90;;;;;;4996055;28;20471;-77
2021/10/07 00:37:04;;;;;;;5.30;1.40;;;12.60;99.90;;;;;;4998667;28;20450;-78
2021/10/07 00:39:29;;;;;;;6.03;2.00;;;12.70;99.90;;;;;;5003049;28;20497;-79
2021/10/07 00:41:56;;;;;;;5.60;2.87;;;12.70;99.90;;;;;;5038838;28;20432;-80
2021/10/07 00:44:24;;;;;;;8.23;4.00;;;12.60;99.90;;;;;;5038923;28;20475;-79
2021/10/07 00:46:58;;;;;;;10.50;5.67;;;12.70;99.90;;;;;;5038988;28;20441;-79
2021/10/07 00:49:25;;;;;;;7.03;3.70;;;12.70;99.90;;;;;;5038739;28;20889;-78
2021/10/07 00:51:52;;;;;;;13.33;5.90;;;12.70;99.90;;;;;;5019089;28;20789;-79
2021/10/07 00:54:22;;;;;;;11.37;4.40;;;12.60;99.90;;;;;;5019361;28;20472;-80
2021/10/07 00:56:50;;;;;;;9.67;4.90;;;12.60;99.90;;;;;;5020993;28;20851;-79
2021/10/07 00:59:16;;;;;;;9.20;4.50;;;12.60;99.90;;;;;;5049569;28;20843;-79
2021/10/07 01:01:43;;;;;;;8.70;4.63;;;12.50;99.90;;;;;;5038210;28;20448;-79
2021/10/07 01:04:12;;;;;;;12.07;5.10;;;12.50;99.90;;;;;;5038832;28;20500;-80
2021/10/07 01:06:42;;;;;;;9.20;3.60;;;12.50;99.90;;;;;;5019726;28;20432;-80
2021/10/07 01:09:08;;;;;;;6.60;2.67;;;12.60;99.90;;;;;;5019077;28;20477;-80
2021/10/07 01:11:35;;;;;;;8.80;3.20;;;12.60;99.90;;;;;;5019106;28;20442;-80
2021/10/07 01:14:02;;;;;;;5.87;2.83;;;12.60;99.90;;;;;;5018683;28;20482;-80
2021/10/07 01:16:29;;;;;;;6.37;2.70;;;12.60;99.90;;;;;;5050957;28;20440;-80
2021/10/07 01:18:56;;;;;;;5.80;2.00;;;12.60;99.90;;;;;;5045710;28;20423;-80
2021/10/07 01:21:25;;;;;;;12.43;2.70;;;12.70;99.90;;;;;;5039795;28;20453;-80
2021/10/07 01:23:52;;;;;;;5.27;2.40;;;13.00;99.90;;;;;;5036903;28;20890;-79
2021/10/07 01:26:21;;;;;;;4.13;1.70;;;13.10;99.90;;;;;;5039089;28;20459;-80
2021/10/07 01:28:50;;;;;;;3.50;1.67;;;12.90;99.90;;;;;;5051828;28;20455;-77
2021/10/07 01:31:17;;;;;;;6.03;1.70;;;12.80;99.90;;;;;;5038653;28;20435;-79
2021/10/07 01:33:45;;;;;;;4.83;2.10;;;12.70;99.90;;;;;;5023556;28;20478;-79
2021/10/07 01:36:11;;;;;;;4.70;2.50;;;12.70;99.90;;;;;;5018660;28;20453;-80
2021/10/07 01:38:39;;;;;;;9.37;3.40;;;12.70;99.90;;;;;;5017933;28;20446;-78
2021/10/07 01:41:07;;;;;;;5.87;3.13;;;12.60;99.90;;;;;;5022318;28;20775;-78
2021/10/07 01:43:34;;;;;;;4.80;2.03;;;12.60;99.90;;;;;;5023931;28;20456;-78
2021/10/07 01:46:01;;;;;;;5.30;2.87;;;12.60;99.90;;;;;;5027122;28;20487;-77
2021/10/07 01:48:30;;;;;;;4.63;2.00;;;12.60;99.90;;;;;;5024989;28;20433;-79
2021/10/07 01:50:56;;;;;;;5.00;1.77;;;12.70;99.90;;;;;;5019552;28;20462;-78
2021/10/07 01:53:24;;;;;;;3.90;1.80;;;12.70;99.90;;;;;;5022049;28;20436;-82
2021/10/07 01:55:52;;;;;;;6.27;1.70;;;12.80;99.90;;;;;;5022840;28;20503;-79
2021/10/07 01:58:19;;;;;;;6.80;1.93;;;12.80;99.90;;;;;;5023271;28;20447;-79
2021/10/07 02:00:46;;;;;;;5.03;2.17;;;12.80;99.90;;;;;;5024315;28;20898;-79
2021/10/07 02:03:13;;;;;;;7.63;1.97;;;12.80;99.90;;;;;;5024849;28;20448;-79
2021/10/07 02:05:40;;;;;;;3.50;1.73;;;12.70;99.90;;;;;;5022584;28;20494;-79
2021/10/07 02:08:07;;;;;;;5.13;1.97;;;12.70;99.90;;;;;;5023718;28;20461;-79
2021/10/07 02:10:34;;;;;;;4.30;1.70;;;12.70;99.90;;;;;;5022110;28;20511;-80
2021/10/07 02:13:02;;;;;;;5.67;2.30;;;12.70;99.90;;;;;;5021987;28;20424;-79
2021/10/07 02:15:29;;;;;;;5.37;1.80;;;12.70;99.90;;;;;;5062701;23;20501;-80
2021/10/07 02:17:56;;;;;;;3.33;1.90;;;12.70;99.90;;;;;;5022587;28;20422;-80
2021/10/07 02:20:22;;;;;;;4.40;1.83;;;12.70;99.90;;;;;;5006740;28;20440;-80
2021/10/07 02:22:49;;;;;;;6.43;1.97;;;12.80;99.90;;;;;;5003582;28;20448;-80
2021/10/07 02:25:16;;;;;;;5.10;1.83;;;12.80;99.90;;;;;;5007973;28;20461;-79
2021/10/07 02:27:43;;;;;;;5.50;2.00;;;12.90;99.90;;;;;;5003749;28;20798;-80
2021/10/07 02:30:14;;;;;;;3.40;1.40;;;12.90;99.90;;;;;;5003605;28;20541;-80
2021/10/07 02:32:41;;;;;;;4.70;1.60;;;12.80;99.90;;;;;;5004034;28;20414;-80
2021/10/07 02:35:09;;;;;;;3.60;1.70;;;12.90;99.90;;;;;;5002766;28;20494;-80
2021/10/07 02:37:36;;;;;;;4.90;1.20;;;12.80;99.90;;;;;;5002444;28;20444;-81
2021/10/07 02:40:03;;;;;;;3.77;1.83;;;12.80;99.90;;;;;;5002917;28;20509;-80
2021/10/07 02:42:30;;;;;;;3.87;1.60;;;12.80;99.90;;;;;;5002602;28;20818;-80
2021/10/07 02:44:57;;;;;;;4.23;1.67;;;12.80;99.90;;;;;;5003233;28;20468;-80
2021/10/07 02:47:25;;;;;;;6.37;1.67;;;12.80;99.90;;;;;;5003848;28;20486;-79
2021/10/07 02:49:52;;;;;;;4.23;1.57;;;12.80;99.90;;;;;;5009868;28;20454;-78
2021/10/07 02:52:19;;;;;;;3.20;1.40;;;12.80;99.90;;;;;;5004320;28;20437;-80
2021/10/07 02:54:46;;;;;;;3.40;1.57;;;12.80;99.90;;;;;;5002244;28;20472;-81
2021/10/07 02:57:12;;;;;;;4.10;1.60;;;12.80;99.90;;;;;;5001977;28;20439;-80
2021/10/07 02:59:39;;;;;;;5.47;1.60;;;12.80;99.90;;;;;;5002645;28;20948;-80
2021/10/07 03:02:06;;;;;;;3.57;1.50;;;12.70;99.90;;;;;;5022303;28;20447;-80
2021/10/07 03:04:34;;;;;;;4.10;2.30;;;12.70;99.90;;;;;;5002140;28;20814;-79
2021/10/07 03:07:01;;;;;;;3.53;1.53;;;12.70;99.90;;;;;;5002624;28;20475;-80
2021/10/07 03:09:28;;;;;;;3.93;1.60;;;12.80;99.90;;;;;;5002916;28;20459;-79
2021/10/07 03:11:54;;;;;;;11.83;2.00;;;12.90;99.90;;;;;;5002378;28;20545;-80
2021/10/07 03:14:21;;;;;;;4.40;1.80;;;12.80;99.90;;;;;;5001699;28;20457;-80
2021/10/07 03:16:54;;;;;;;3.20;1.70;;;12.70;99.90;;;;;;5003140;28;20753;-79
2021/10/07 03:19:21;;;;;;;5.20;1.90;;;12.70;99.90;;;;;;5001977;28;20861;-80
2021/10/07 03:21:49;;;;;;;3.63;1.80;;;12.70;99.90;;;;;;5002599;28;20425;-78
2021/10/07 03:24:16;;;;;;;5.00;1.80;;;12.70;99.90;;;;;;5002951;28;20551;-79
2021/10/07 03:26:43;;;;;;;3.70;1.87;;;12.70;99.90;;;;;;5002690;28;20483;-80
2021/10/07 03:29:10;;;;;;;4.53;1.83;;;12.60;99.90;;;;;;5003351;28;20475;-80
2021/10/07 03:31:37;;;;;;;4.87;1.67;;;12.70;99.90;;;;;;5004006;28;20432;-80
2021/10/07 03:34:03;;;;;;;5.03;1.60;;;12.70;99.90;;;;;;5010936;28;20445;-80
2021/10/07 03:36:30;;;;;;;7.03;2.00;;;12.80;99.90;;;;;;5002152;28;20447;-80
2021/10/07 03:38:58;;;;;;;4.60;1.53;;;12.80;99.90;;;;;;5002487;28;20428;-79
2021/10/07 03:41:25;;;;;;;3.67;1.70;;;12.80;99.90;;;;;;5002751;28;20440;-80
2021/10/07 03:43:52;;;;;;;3.47;1.50;;;12.80;99.90;;;;;;5000589;28;20463;-80
2021/10/07 03:46:19;;;;;;;6.20;1.97;;;12.80;99.90;;;;;;5003003;28;20551;-80
2021/10/07 03:48:46;;;;;;;4.30;1.87;;;12.80;99.90;;;;;;4982382;28;20904;-79
2021/10/07 03:51:13;;;;;;;5.37;2.03;;;12.80;99.90;;;;;;4986151;28;20437;-79
2021/10/07 03:53:40;;;;;;;4.30;1.27;;;12.80;99.90;;;;;;5002066;28;20512;-79
2021/10/07 03:56:08;;;;;;;4.80;2.10;;;12.80;99.90;;;;;;5003992;28;20418;-80
2021/10/07 03:58:35;;;;;;;5.07;1.90;;;12.70;99.90;;;;;;5001822;28;20402;-79
2021/10/07 04:01:02;;;;;;;4.40;1.63;;;12.70;99.90;;;;;;5011210;28;20429;-80
2021/10/07 04:03:29;;;;;;;3.93;2.13;;;12.60;99.90;;;;;;5006401;28;20440;-80
2021/10/07 04:05:57;;;;;;;3.37;1.60;;;12.60;99.90;;;;;;5003119;28;20465;-80
2021/10/07 04:08:24;;;;;;;4.27;1.83;;;12.60;99.90;;;;;;5001591;28;20502;-80
2021/10/07 04:10:51;;;;;;;4.17;1.63;;;12.50;99.90;;;;;;5002296;28;20455;-80
2021/10/07 04:13:20;;;;;;;4.73;2.00;;;12.50;99.90;;;;;;5002071;28;20553;-80
2021/10/07 04:15:48;;;;;;;4.40;1.67;;;12.60;99.90;;;;;;5019320;28;20576;-80
2021/10/07 04:18:15;;;;;;;5.30;1.80;;;12.60;99.90;;;;;;5021167;28;20425;-80
2021/10/07 04:20:42;;;;;;;4.23;1.73;;;12.60;99.90;;;;;;5021246;28;20435;-79
2021/10/07 04:23:10;;;;;;;4.53;1.80;;;12.50;99.90;;;;;;5020840;28;20463;-79
2021/10/07 04:25:37;;;;;;;3.53;1.73;;;12.60;99.90;;;;;;5004502;28;20487;-78
2021/10/07 04:28:06;;;;;;;4.40;1.70;;;12.60;99.90;;;;;;5009262;28;20519;-78
2021/10/07 04:30:35;;;;;;;3.40;2.03;;;12.60;99.90;;;;;;5007993;28;20762;-79
2021/10/07 04:33:02;;;;;;;7.30;1.93;;;12.60;99.90;;;;;;5016256;28;20446;-79
2021/10/07 04:35:29;;;;;;;6.20;1.77;;;12.60;99.90;;;;;;5020853;28;20782;-81
2021/10/07 04:37:55;;;;;;;2.93;1.40;;;12.60;99.90;;;;;;5003817;28;20829;-79
2021/10/07 04:40:23;;;;;;;3.60;1.80;;;12.60;99.90;;;;;;5000564;28;20444;-81
2021/10/07 04:42:49;;;;;;;3.47;2.03;;;12.50;99.90;;;;;;5001205;28;20451;-79
2021/10/07 04:45:16;;;;;;;3.67;1.60;;;12.60;99.90;;;;;;5009940;28;20486;-78
2021/10/07 04:47:45;;;;;;;4.40;1.83;;;12.50;99.90;;;;;;5011575;28;20518;-78
2021/10/07 04:50:11;;;;;;;3.90;1.83;;;12.40;99.90;;;;;;5005437;28;20510;-77
2021/10/07 04:52:39;;;;;;;4.53;1.63;;;12.50;99.90;;;;;;5005377;28;20433;-78
2021/10/07 04:55:07;;;;;;;5.60;2.10;;;12.50;99.90;;;;;;5004913;28;20467;-79
2021/10/07 04:57:33;;;;;;;7.63;2.33;;;12.50;99.90;;;;;;5004402;28;20450;-79
2021/10/07 05:00:00;;;;;;;5.60;1.93;;;12.60;99.90;;;;;;5010144;28;20454;-79
2021/10/07 05:02:27;;;;;;;4.37;2.07;;;12.60;99.90;;;;;;5002853;28;20554;-79
2021/10/07 05:04:55;;;;;;;6.03;2.30;;;12.60;99.90;;;;;;5001451;28;20476;-79
2021/10/07 05:07:22;;;;;;;4.70;1.90;;;12.60;99.90;;;;;;4999838;28;20430;-81
2021/10/07 05:09:49;;;;;;;4.03;2.23;;;12.70;99.90;;;;;;5001550;28;20462;-81
2021/10/07 05:12:16;;;;;;;12.23;2.63;;;12.60;99.90;;;;;;5005435;28;20457;-81
2021/10/07 05:14:43;;;;;;;5.20;2.10;;;12.60;99.90;;;;;;5023697;28;20544;-79
2021/10/07 05:17:11;;;;;;;3.53;1.80;;;12.60;99.90;;;;;;5024218;28;20446;-80
2021/10/07 05:19:37;;;;;;;3.20;1.53;;;12.60;99.90;;;;;;5020909;28;20518;-81
2021/10/07 05:22:06;;;;;;;4.80;1.97;;;12.60;99.90;;;;;;5017215;28;20471;-79
2021/10/07 05:24:33;;;;;;;5.03;2.27;;;12.60;99.90;;;;;;5011752;28;20970;-80
2021/10/07 05:26:59;;;;;;;4.53;2.37;;;12.50;99.90;;;;;;5010980;28;20454;-80
2021/10/07 05:29:26;;;;;;;4.90;2.93;;;12.50;99.90;;;;;;5004708;28;20465;-81
2021/10/07 05:31:53;;;;;;;4.00;2.27;;;12.50;99.90;;;;;;5003531;28;20944;-80
2021/10/07 05:34:20;;;;;;;4.23;2.33;;;12.60;99.90;;;;;;5003750;28;20521;-81
2021/10/07 05:36:47;;;;;;;5.80;2.20;;;12.50;99.90;;;;;;5003997;28;20458;-81
2021/10/07 05:39:15;;;;;;;4.27;2.10;;;12.50;99.90;;;;;;5004424;28;20458;-82
2021/10/07 05:41:42;;;;;;;3.70;2.00;;;12.50;99.90;;;;;;5019509;28;20436;-80
2021/10/07 05:44:10;;;;;;;4.13;1.70;;;12.50;99.90;;;;;;5004537;28;20537;-80
2021/10/07 05:46:37;;;;;;;5.10;2.40;;;12.60;99.90;;;;;;5004410;28;20491;-79
2021/10/07 05:49:04;;;;;;;6.20;3.53;;;12.60;99.90;;;;;;5003979;28;20459;-80
2021/10/07 05:51:30;;;;;;;3.37;2.00;;;12.70;99.90;;;;;;5004255;28;20455;-79
2021/10/07 05:53:57;;;;;;;3.97;2.07;;;12.60;99.90;;;;;;5005057;28;20554;-80
2021/10/07 05:56:25;;;;;;;5.50;2.30;;;12.70;99.90;;;;;;4985901;28;20461;-81
2021/10/07 05:58:52;;;;;;;7.77;3.43;;;12.70;99.90;;;;;;5001660;28;20433;-85
2021/10/07 06:01:19;;;;;;;5.00;2.63;;;12.70;99.90;;;;;;5010083;28;20422;-85
2021/10/07 06:03:46;;;;;;;5.23;2.20;;;12.70;99.90;;;;;;5002629;28;20509;-80
2021/10/07 06:06:13;;;;;;;6.03;2.60;;;12.80;99.90;;;;;;5000692;28;20901;-80
2021/10/07 06:08:40;;;;;;;7.20;2.37;;;12.80;99.90;;;;;;4985530;28;20426;-82
2021/10/07 06:11:07;;;;;;;5.77;2.60;;;12.80;99.90;;;;;;4992741;28;20510;-81
2021/10/07 06:13:35;;;;;;;4.80;3.00;;;12.80;99.90;;;;;;5001219;28;20525;-80
2021/10/07 06:16:02;;;;;;;3.90;2.70;;;12.80;99.90;;;;;;5006035;28;20956;-80
2021/10/07 06:18:29;;;;;;;7.30;2.80;;;12.80;99.90;;;;;;5006898;28;20462;-79
2021/10/07 06:20:55;;;;;;;4.67;2.53;;;12.90;99.90;;;;;;5003112;28;20460;-80
2021/10/07 06:23:23;;;;;;;3.73;2.40;;;12.90;99.90;;;;;;5007711;28;20497;-80
2021/10/07 06:25:50;;;;;;;4.73;2.33;;;12.90;99.90;;;;;;5000783;28;20554;-81
2021/10/07 06:28:17;;;;;;;4.73;2.53;;;13.00;99.90;;;;;;4998923;28;20515;-82
2021/10/07 06:30:45;;;;;;;4.07;2.50;;;13.10;99.90;;;;;;5000024;28;20439;-82
2021/10/07 06:33:12;;;;;;;6.73;2.67;;;13.00;99.90;;;;;;5000407;28;20457;-82
2021/10/07 06:35:39;;;;;;;4.00;2.57;;;13.10;99.90;;;;;;5000136;28;20521;-83
2021/10/07 06:38:07;;;;;;;5.23;2.53;;;13.20;99.90;;;;;;4999529;28;20531;-82
2021/10/07 06:40:34;;;;;;;6.80;2.70;;;13.20;99.90;;;;;;4999801;28;20426;-82
2021/10/07 06:43:01;;;;;;;5.80;2.50;;;13.20;99.90;;;;;;4999266;28;20455;-82
2021/10/07 06:45:29;;;;;;;6.10;2.80;;;13.20;99.90;;;;;;4998853;28;20532;-81
2021/10/07 06:47:57;;;;;;;5.00;2.63;;;13.20;99.90;;;;;;5012568;28;20425;-83
2021/10/07 06:50:24;;;;;;;6.20;3.47;;;13.30;99.90;;;;;;5003846;28;20538;-82
2021/10/07 06:52:51;;;;;;;5.57;2.50;;;13.50;99.90;;;;;;4999738;28;20432;-86
2021/10/07 06:55:18;;;;;;;4.10;2.37;;;13.60;99.90;;;;;;5005729;28;20464;-83
2021/10/07 06:57:45;;;;;;;8.33;2.50;;;13.40;99.90;;;;;;5012954;28;20483;-84
2021/10/07 07:00:12;;;;;;;5.10;2.80;;;13.30;99.90;;;;;;5004629;28;20998;-80
2021/10/07 07:02:40;;;;;;;6.67;2.80;;;13.30;99.90;;;;;;5003737;28;20426;-79
2021/10/07 07:05:09;;;;;;;6.83;3.50;;;13.60;99.90;;;;;;4981594;28;20486;-79
2021/10/07 07:07:37;;;;;;;5.57;2.73;;;13.50;99.90;;;;;;4995347;28;20573;-80
2021/10/07 07:10:04;;;;;;;4.20;2.60;;;13.60;99.90;;;;;;4997399;28;20864;-78
2021/10/07 07:12:31;;;;;;;7.67;3.50;;;13.50;99.90;;;;;;4998059;28;20454;-79
2021/10/07 07:14:58;;;;;;;7.80;3.63;;;13.30;99.90;;;;;;4997737;28;20552;-78
2021/10/07 07:17:25;;;;;;;5.20;3.70;;;13.20;99.90;;;;;;4995215;28;20521;-78
2021/10/07 07:19:52;;;;;;;6.57;3.47;;;13.50;99.90;;;;;;4993682;28;20475;-77
2021/10/07 07:22:20;;;;;;;5.20;3.47;;;13.60;99.90;;;;;;4994397;28;20451;-77
2021/10/07 07:24:46;;;;;;;5.60;4.03;;;13.60;99.90;;;;;;4994144;28;20450;-77
2021/10/07 07:27:14;;;;;;;7.90;4.43;;;13.50;99.90;;;;;;4995138;28;20478;-78
2021/10/07 07:29:41;;;;;;;6.30;4.00;;;13.50;99.90;;;;;;4993405;28;20466;-77
2021/10/07 07:32:09;;;;;;;4.70;3.63;;;13.50;99.90;;;;;;4995330;28;20504;-78
2021/10/07 07:34:36;;;;;;;7.23;4.07;;;13.50;99.90;;;;;;5001230;28;20574;-77
2021/10/07 07:37:03;;;;;;;7.37;4.30;;;13.40;99.90;;;;;;4991428;28;20519;-77
2021/10/07 07:39:31;;;;;;;7.00;4.73;;;13.40;99.90;;;;;;4997100;28;20453;-77
2021/10/07 07:41:58;;;;;;;6.37;3.90;;;13.40;99.90;;;;;;4996610;28;20467;-77
2021/10/07 07:44:25;;;;;;;7.07;4.50;;;13.50;99.90;;;;;;4993408;28;20453;-81
2021/10/07 07:46:52;;;;;;;6.67;3.87;;;13.40;99.90;;;;;;4999158;28;20465;-77
2021/10/07 07:49:18;;;;;;;7.43;4.10;;;13.40;99.90;;;;;;5004163;28;20490;-78
2021/10/07 07:51:45;;;;;;;9.10;4.30;;;13.60;99.90;;;;;;4999430;28;20460;-78
2021/10/07 07:54:12;;;;;;;7.73;4.77;;;13.60;99.90;;;;;;4997667;28;20482;-78
2021/10/07 07:56:40;;;;;;;8.30;4.53;;;13.50;99.90;;;;;;4994059;28;20419;-78
2021/10/07 07:59:09;;;;;;;7.37;4.97;;;13.50;99.90;;;;;;4996176;28;20470;-78
2021/10/07 08:01:36;;;;;;;6.23;4.50;;;13.50;99.90;;;;;;5000599;28;20440;-78
2021/10/07 08:04:03;;;;;;;7.20;5.33;;;13.50;99.90;;;;;;5000963;28;20471;-78
2021/10/07 08:06:32;;;;;;;8.90;6.00;;;13.70;99.90;;;;;;5000922;28;20483;-78
2021/10/07 08:08:59;;;;;;;8.37;6.13;;;13.70;99.90;;;;;;4997229;28;20509;-78
2021/10/07 08:11:26;;;;;;;7.40;5.60;;;13.60;99.90;;;;;;4999290;28;20493;-78
2021/10/07 08:13:55;;;;;;;11.90;5.90;;;13.40;99.90;;;;;;5001124;28;20475;-78
2021/10/07 08:16:22;;;;;;;10.30;5.93;;;13.40;99.90;;;;;;5043373;23;21001;-79
2021/10/07 08:18:48;;;;;;;10.53;6.70;;;13.30;99.90;;;;;;5017123;28;20502;-78
2021/10/07 08:21:15;;;;;;;10.13;6.93;;;13.30;99.90;;;;;;5018968;28;20438;-80
2021/10/07 08:23:42;;;;;;;9.63;5.47;;;13.40;99.90;;;;;;5021374;28;20521;-80
2021/10/07 08:26:09;;;;;;;10.00;7.20;;;13.60;99.90;;;;;;5018395;28;20569;-79
2021/10/07 08:28:36;;;;;;;10.70;5.80;;;13.60;99.90;;;;;;5017605;28;20429;-79
2021/10/07 08:31:04;;;;;;;7.57;5.87;;;13.60;99.90;;;;;;5007225;28;20454;-79
2021/10/07 08:33:31;;;;;;;7.27;5.93;;;13.70;99.90;;;;;;5017468;28;20492;-79
2021/10/07 08:35:58;;;;;;;10.47;5.70;;;13.70;99.90;;;;;;5013907;28;20468;-79
2021/10/07 08:38:26;;;;;;;8.73;6.50;;;13.80;99.90;;;;;;5017234;28;20540;-79
2021/10/07 08:40:54;;;;;;;9.83;6.60;;;13.80;99.90;;;;;;5021772;28;20465;-79
2021/10/07 08:43:21;;;;;;;8.17;6.93;;;13.60;99.90;;;;;;5022004;28;20533;-78
2021/10/07 08:45:48;;;;;;;12.03;6.80;;;13.70;99.90;;;;;;5012256;28;20513;-79
2021/10/07 08:48:17;;;;;;;11.70;6.10;;;13.80;99.90;;;;;;5000676;28;20475;-78
2021/10/07 08:50:44;;;;;;;7.80;6.30;;;14.10;99.90;;;;;;5004455;28;21329;-79
2021/10/07 08:53:10;;;;;;;9.73;5.17;;;14.20;99.90;;;;;;5023075;28;20425;-78
2021/10/07 08:55:37;;;;;;;6.33;5.07;;;14.10;99.90;;;;;;5021950;28;20558;-78
2021/10/07 08:58:04;;;;;;;8.30;6.00;;;14.10;99.90;;;;;;5014650;28;20454;-78
2021/10/07 09:00:31;;;;;;;9.17;5.90;;;14.10;99.90;;;;;;5043466;28;20412;-79
2021/10/07 09:03:18;;;;;;;15.50;5.63;;;14.10;99.90;;;;;;5031445;28;20438;-78
2021/10/07 09:05:45;;;;;;;10.13;6.67;;;14.20;99.90;;;;;;5032389;28;20448;-78
2021/10/07 09:08:15;;;;;;;8.00;6.13;;;14.10;99.90;;;;;;5024144;28;20460;-78
2021/10/07 09:10:45;;;;;;;10.13;6.77;;;14.10;99.90;;;;;;5025761;28;20466;-78
2021/10/07 09:13:15;;;;;;;7.67;6.80;;;14.00;99.90;;;;;;5027631;28;20413;-77
2021/10/07 09:15:48;;;;;;;9.23;7.30;;;14.00;99.90;;;;;;5024747;28;20484;-78
2021/10/07 09:18:16;;;;;;;8.60;6.50;;;14.20;99.90;;;;;;5016907;28;20472;-80
2021/10/07 09:20:46;;;;;;;7.20;6.50;;;14.20;99.90;;;;;;5009765;28;20529;-78
2021/10/07 09:23:16;;;;;;;10.07;7.13;;;14.40;99.90;;;;;;5024452;28;20481;-78
2021/10/07 09:26:12;;;;;;;9.43;6.73;;;14.40;99.90;;;;;;5032407;28;20451;-78
2021/10/07 09:28:51;;;;;;;8.93;7.13;;;14.50;99.90;;;;;;4990913;28;20500;-80
2021/10/07 09:31:26;;;;;;;11.27;7.87;;;14.50;99.90;;;;;;5026560;28;20508;-78
2021/10/07 09:33:54;;;;;;;9.37;8.37;;;14.30;99.90;;;;;;5030116;28;20447;-79
2021/10/07 09:36:25;;;;;;;11.30;8.20;;;14.40;99.90;;;;;;5012689;28;20456;-79
2021/10/07 09:38:53;;;;;;;12.13;8.10;;;14.30;99.90;;;;;;5023566;28;20433;-78
2021/10/07 09:41:23;;;;;;;12.93;10.37;;;14.30;99.90;;;;;;5029796;28;20442;-77
2021/10/07 09:43:53;;;;;;;11.90;9.23;;;14.30;99.90;;;;;;5028170;28;20476;-79
2021/10/07 09:46:43;;;;;;;11.47;9.67;;;14.20;99.90;;;;;;5031248;28;20465;-79
2021/10/07 09:49:12;;;;;;;13.87;10.10;;;14.20;99.90;;;;;;5024605;28;20526;-79
2021/10/07 09:51:42;;;;;;;13.60;10.00;;;14.20;99.90;;;;;;5018545;28;20457;-79
2021/10/07 09:54:09;;;;;;;11.93;8.30;;;14.20;99.90;;;;;;5020229;28;20526;-79
2021/10/07 09:56:37;;;;;;;10.90;8.50;;;14.30;99.90;;;;;;5020266;28;20459;-79
2021/10/07 09:59:09;;;;;;;11.57;9.00;;;14.30;99.90;;;;;;5018835;28;20522;-79
2021/10/07 10:01:37;;;;;;;13.73;10.30;;;14.60;99.90;;;;;;5014034;28;20812;-78
2021/10/07 10:04:04;;;;;;;11.57;8.93;;;14.80;99.90;;;;;;5007263;28;20501;-80
2021/10/07 10:06:31;;;;;;;11.27;9.10;;;14.70;99.90;;;;;;5014890;28;20492;-78
2021/10/07 10:08:59;;;;;;;11.37;8.90;;;14.80;99.90;;;;;;4998409;28;20429;-79
2021/10/07 10:11:26;;;;;;;12.97;9.80;;;14.90;99.90;;;;;;5000540;28;20941;-78
2021/10/07 10:13:53;;;;;;;13.40;9.13;;;14.80;99.90;;;;;;5016179;28;20518;-78
2021/10/07 10:16:20;;;;;;;15.77;8.83;;;14.60;99.90;;;;;;5017808;28;20561;-78
2021/10/07 10:19:00;;;;;;;31.57;13.30;;;14.90;99.90;;;;;;5013683;28;21091;-77
2021/10/07 10:21:32;;;;;;;10.57;8.90;;;15.10;99.90;;;;;;4999185;28;20434;-77
2021/10/07 10:24:01;;;;;;;10.87;8.27;;;15.20;99.90;;;;;;5008849;28;20788;-77
2021/10/07 10:26:28;;;;;;;11.20;8.67;;;15.10;99.90;;;;;;5017226;28;20857;-79
2021/10/07 10:28:56;;;;;;;16.03;11.10;;;15.10;99.90;;;;;;5017331;28;20456;-77
2021/10/07 10:31:31;;;;;;;12.40;8.97;;;15.10;99.90;;;;;;5017736;28;20436;-77
2021/10/07 10:34:09;;;;;;;11.90;8.23;;;15.10;99.90;;;;;;5016658;28;20546;-79
2021/10/07 10:36:40;;;;;;;10.50;7.50;;;15.20;99.90;;;;;;5016047;28;20449;-77
2021/10/07 10:39:13;;;;;;;9.67;7.47;;;15.30;99.90;;;;;;5013589;28;20457;-77
2021/10/07 10:41:45;;;;;;;9.70;8.03;;;15.30;99.90;;;;;;4995230;28;20430;-78
2021/10/07 10:44:34;;;;;;;8.07;7.00;;;15.50;99.90;;;;;;4995763;28;20518;-78
2021/10/07 10:47:14;;;;;;;11.50;7.17;;;15.30;99.90;;;;;;5010481;28;20754;-77
2021/10/07 10:50:11;;;;;;;8.93;6.63;;;15.40;99.90;;;;;;5015469;28;20457;-77
2021/10/07 10:52:42;;;;;;;12.67;7.97;;;15.20;99.90;;;;;;4995962;28;20500;-78
2021/10/07 10:55:12;;;;;;;11.43;8.57;;;15.20;99.90;;;;;;5009487;28;20805;-80
2021/10/07 10:57:42;;;;;;;11.37;8.20;;;15.10;99.90;;;;;;5011361;28;20449;-78
2021/10/07 11:00:30;;;;;;;13.50;9.60;;;14.90;99.90;;;;;;5007281;28;20447;-78
2021/10/07 11:03:18;;;;;;;10.90;8.47;;;15.20;99.90;;;;;;5029831;28;20435;-76
2021/10/07 11:06:01;;;;;;;12.40;8.27;;;15.30;99.90;;;;;;5033214;28;20465;-80
2021/10/07 11:08:29;;;;;;;10.93;8.43;;;15.20;99.90;;;;;;5018798;28;20505;-80
2021/10/07 11:10:58;;;;;;;11.40;8.60;;;15.10;99.90;;;;;;5018174;28;20517;-80
2021/10/07 11:13:27;;;;;;;11.93;8.77;;;15.10;99.90;;;;;;5018962;28;20489;-79
2021/10/07 11:15:57;;;;;;;11.87;8.67;;;15.10;99.90;;;;;;5018435;28;20465;-80
2021/10/07 11:18:26;;;;;;;13.23;7.23;;;15.20;99.90;;;;;;5018559;28;20490;-80
2021/10/07 11:20:58;;;;;;;11.63;7.03;;;15.30;99.90;;;;;;5022534;28;20465;-81
2021/10/07 11:23:25;;;;;;;11.00;7.20;;;15.50;99.90;;;;;;5021837;28;20467;-80
2021/10/07 11:25:54;;;;;;;8.30;7.17;;;15.80;99.90;;;;;;5017174;28;20475;-80
2021/10/07 11:28:30;;;;;;;13.30;7.97;;;15.70;99.90;;;;;;4998753;28;20507;-78
2021/10/07 11:31:01;;;;;;;11.00;8.77;;;15.60;99.90;;;;;;5000394;28;20454;-78
2021/10/07 11:33:30;;;;;;;10.90;7.60;;;15.60;99.90;;;;;;4997200;28;20952;-78
2021/10/07 11:35:59;;;;;;;11.50;7.13;;;15.50;99.90;;;;;;5002583;28;20517;-78
2021/10/07 11:38:26;;;;;;;9.07;6.40;;;15.70;99.90;;;;;;5003558;28;20523;-79
2021/10/07 11:40:53;;;;;;;8.27;6.20;;;15.80;99.90;;;;;;5002155;28;20456;-76
2021/10/07 11:43:23;;;;;;;9.60;6.10;;;15.50;99.90;;;;;;5009764;28;20535;-79
2021/10/07 11:45:53;;;;;;;9.00;6.30;;;15.60;99.90;;;;;;5001832;28;20526;-77
2021/10/07 11:48:21;;;;;;;11.73;6.40;;;15.50;99.90;;;;;;5014945;28;20485;-79
2021/10/07 11:50:50;;;;;;;7.83;5.73;;;15.60;99.90;;;;;;4996439;28;20428;-79
2021/10/07 11:53:29;;;;;;;7.20;4.53;;;15.80;99.90;;;;;;5006828;28;20462;-83
2021/10/07 11:55:56;;;;;;;6.23;4.70;;;15.70;99.90;;;;;;5017403;28;20855;-79
2021/10/07 11:58:26;;;;;;;8.70;5.53;;;15.50;99.90;;;;;;5014538;28;20421;-79
2021/10/07 12:00:55;;;;;;;8.87;5.67;;;15.70;99.90;;;;;;5013504;28;20446;-79
2021/10/07 12:03:28;;;;;;;6.90;5.43;;;15.70;99.90;;;;;;5016364;28;20428;-79
2021/10/07 12:05:59;;;;;;;10.67;6.03;;;15.90;99.90;;;;;;5016923;28;20518;-78
2021/10/07 12:08:28;;;;;;;10.00;6.53;;;15.70;99.90;;;;;;5016315;28;21081;-79
2021/10/07 12:10:58;;;;;;;11.80;7.10;;;15.80;99.90;;;;;;5009077;28;20456;-79
2021/10/07 12:13:27;;;;;;;9.70;6.10;;;15.90;99.90;;;;;;5001614;28;20417;-79
2021/10/07 12:15:58;;;;;;;11.00;8.20;;;15.80;99.90;;;;;;5015755;28;20500;-80
2021/10/07 12:18:26;;;;;;;7.70;5.83;;;15.70;99.90;;;;;;4998926;28;20417;-79
2021/10/07 12:21:05;;;;;;;8.73;6.03;;;15.70;99.90;;;;;;5005970;28;20429;-79
2021/10/07 12:23:45;;;;;;;8.20;6.27;;;15.80;99.90;;;;;;5001519;28;20453;-79
2021/10/07 12:26:12;;;;;;;8.70;5.93;;;15.90;99.90;;;;;;5019255;28;20541;-79
2021/10/07 12:28:42;;;;;;;8.40;5.90;;;15.80;99.90;;;;;;5006281;28;20990;-77
2021/10/07 12:31:10;;;;;;;13.93;6.90;;;16.00;99.90;;;;;;5025918;28;20558;-78
2021/10/07 12:33:37;;;;;;;7.53;6.07;;;15.80;99.90;;;;;;5021132;28;20429;-78
2021/10/07 12:36:06;;;;;;;9.60;6.40;;;15.70;99.90;;;;;;5021991;28;20474;-78
2021/10/07 12:38:57;;;;;;;7.50;5.70;;;15.90;99.90;;;;;;5023158;28;20533;-77
2021/10/07 12:41:32;;;;;;;10.80;6.53;;;15.80;99.90;;;;;;5009359;28;20925;-77
2021/10/07 12:43:59;;;;;;;7.40;5.60;;;15.50;99.90;;;;;;5039579;28;20490;-79
2021/10/07 12:46:28;;;;;;;14.60;6.90;;;15.40;99.90;;;;;;5020180;28;20448;-77
2021/10/07 12:48:57;;;;;;;8.13;5.40;;;15.60;99.90;;;;;;5012925;28;20586;-77
2021/10/07 12:51:26;;;;;;;5.93;4.77;;;15.70;99.90;;;;;;5003090;28;20443;-79